Twodot, Montana
Current Conditions -  °F | °C
As of 6:54 PM on Wednesday 17 Dec 2014 (Local Time) from KLWT Reporting Station
Overcast Overcast  
Wind Chill: 25°   Ceiling: 6000
Heat Index: 31°   Visibility: 10mi
Dew Point: 27°   Wind: 6mph
Humidity: 85%   Direction: 160°SSE
Pressure: 29.87"   Gusts: NA
Location:  46.42°N, 110.07°W
Report Text: KLWT 180154Z AUTO 16005KT 10SM OVC060 M01/M03 A2987 RMK AO2 SLP147 T10061028
Loading
Personal Weather Stations






























Interactive Weather Map New forecast layout! Learn more

10-Day Weather Forecast

Advertisements
Track Severe Weather on mobile